Перелешино

Карта отелей и гостиниц, располагающихся рядом с аэропортом Перелешино :

Перелешино Воронежская область 51° 45' 32.94" N, 40° 8' 43.7388" E
Код аэродрома ИКАО
ZD5A
Код аэродрома RU
ЗД5А
Координаты
N51.75915° E040.14548°
Превышение над уровнем моря
171
Основная полоса
07/25
Курс магнитный
069/249
Длина основной ВПП
700
Ширина основной ВПП
23
Покрытие основной ВПП
Нетвёрдое (грунт)
Освещение ВПП
Нет
Тип: 
Аэродром
Класс аэродрома: 
Принадлежность: 
ГА
Статус: 
Недействующий
Сайт: 
E-mail аэродрома: 
Страна: 
Россия
Регион: 
Воронежская область
Город: 
Дополнительная информация: 

Найти трансфер

С помощью этой формы Вы можете найти трансфер из аэропорта Перелешино в город, аэропорт или вокзал:

Карта места

Javascript is required to view this map.

Погода в аэропортах:

Авиационная погода в Ханты-Мансийске

Регион: 
Погода METAR: 
USHH 171830Z 29004MPS 250V320 9999 -RA BKN018 05/05 Q0990 R24/290050 TEMPO 3100 -RA BKN004
Время наблюдения
2021-09-17T18:30:00Z
Температура C
5.0
Точка росы
5.0
Направление ветра
290
Скорость ветра (узлы)
8
Метео видимость
6.21
Явления погоды
-RA
Условия полета
MVFR
Аэропорт подробнее: 

Авиационная погода в Уральске

Регион: 
Погода METAR: 
UARR 171830Z 22002MPS 9999 -RA BKN040 08/04 Q1017 R22/CLRD70 NOSIG RMK QFE759/1012
Время наблюдения
2021-09-17T18:30:00Z
Температура C
8.0
Точка росы
4.0
Направление ветра
220
Скорость ветра (узлы)
4
Метео видимость
6.21
Явления погоды
-RA
Условия полета
VFR
Аэропорт подробнее: 

Авиационная погода в аэропорту Международный

Регион: 
Погода METAR: 
UKLL 171630Z 01004MPS 3600 -SHRA BKN004 BKN030CB 17/16 Q1005 R31/290055 NOSIG
Время наблюдения
2021-09-17T16:30:00Z
Температура C
17.0
Точка росы
16.0
Направление ветра
10
Скорость ветра (узлы)
8
Метео видимость
2.24
Явления погоды
-SHRA
Условия полета
LIFR
Аэропорт подробнее: 

Авиационная погода в Закаталы

Регион: 
Погода METAR: 
UBBY 171900Z 12006KT 9999 VCTS SCT030CB OVC070 18/18 Q1019 R33/////// NOSIG RMK MT OBSC
Время наблюдения
2021-09-17T19:00:00Z
Температура C
18.0
Точка росы
18.0
Направление ветра
120
Скорость ветра (узлы)
6
Метео видимость
6.21
Явления погоды
VCTS
Условия полета
VFR